Lake Lincolndale, New York
Current Conditions -  °F | °C
As of 7:53 AM on Friday 24 Oct 2014 (Local Time) from KDXR Reporting Station
Light Rain Light Rain  
Wind Chill: 42°   Ceiling: 1700
Heat Index: 47°   Visibility: 6mi
Dew Point: 42°   Wind: 12mph
Humidity: 83%   Direction: 320°NW
Pressure: 29.81"   Gusts: NA
Location:  41.3759°N, 73.7482°W
Report Text: KDXR 241153Z 32010KT 6SM -RA BKN017 BKN021 OVC036 08/06 A2981 RMK AO2 SLP095 P0005 60007 70010 T00830056 10094 20083 52013
Loading
Personal Weather Stations






























Interactive Weather Map
Tropical Storm Tracking
New forecast layout! Learn more

10-Day Weather Forecast

Advertisements
Track Severe Weather on mobile